< < Back
Terminal Aerodrome Forecast


Current Version              Previous Versions:   1  2  3  4  5  6  7  8  9  

Terminal Aerodrome Forecast

250
FTUS42 KCHS 312333
TAFCHS
TAF
KCHS 312333Z 0100/0124 VRB05KT P6SM SCT020 SCT060 BKN150
     FM010800 VRB03KT 6SM BR SCT006 BKN015
     FM011400 27008KT P6SM SCT020 BKN060
     FM011800 21012KT P6SM VCSH SCT025 BKN050=



Latest METAR

679
SAUS80 KWBC 010500 RRI
MTRCHS
METAR KCHS 010456Z 33006KT 10SM FEW035 SCT060 24/22 A2990 RMK AO2 SLP123
T02440222 403170233


USA.gov is the U.S. government's official web portal to all federal, state and local government web resources and services.